createdAt,value
2018-11-29T19:54:13.030Z,61.70
2018-11-29T19:56:42.184Z,61.30
2018-11-29T19:59:11.256Z,61.30
2018-11-29T20:01:40.398Z,61.50
2018-11-29T20:04:09.475Z,61.60
2018-11-29T20:06:39.217Z,61.60
2018-11-29T20:09:08.365Z,61.60
2018-11-29T20:11:37.604Z,61.90
2018-11-29T20:14:06.775Z,61.90
2018-11-29T20:16:35.911Z,62.20
2018-11-29T20:19:05.104Z,62.30
2018-11-29T20:21:34.261Z,62.40
2018-11-29T20:24:03.314Z,62.30
2018-11-29T20:26:32.506Z,62.50
2018-11-29T20:29:01.611Z,62.40
2018-11-29T20:31:30.741Z,62.60
2018-11-29T20:33:59.837Z,62.70
2018-11-29T20:36:30.552Z,62.90
2018-11-29T20:39:01.601Z,62.90
2018-11-29T20:41:30.768Z,62.90
2018-11-29T20:43:59.740Z,62.90
2018-11-29T20:46:28.870Z,62.50
2018-11-29T20:48:57.870Z,62.50
2018-11-29T20:51:26.977Z,62.30
2018-11-29T20:53:56.016Z,62.60
2018-11-29T20:56:25.963Z,62.30
2018-11-29T20:58:55.020Z,62.10
2018-11-29T21:01:24.117Z,62.20
2018-11-29T21:03:53.326Z,62.30
2018-11-29T21:06:22.528Z,62.40
2018-11-29T21:08:51.596Z,62.50
2018-11-29T21:11:20.716Z,62.60
2018-11-29T21:13:49.755Z,62.50
2018-11-29T21:16:18.803Z,62.50
2018-11-29T21:18:47.910Z,62.60
2018-11-29T21:21:17.528Z,62.60
2018-11-29T21:23:46.607Z,62.30
2018-11-29T21:26:15.673Z,62.40
2018-11-29T21:28:44.770Z,62.30
2018-11-29T21:31:15.071Z,62.50
2018-11-29T21:33:44.205Z,62.60
2018-11-29T21:36:13.210Z,62.70
2018-11-29T21:38:42.352Z,62.90
2018-11-29T21:41:11.477Z,62.90
2018-11-29T21:43:40.513Z,63.00
2018-11-29T21:46:09.673Z,63.00
2018-11-29T21:48:38.819Z,63.10
2018-11-29T21:51:07.886Z,62.90
2018-11-29T21:53:36.963Z,62.90
2018-11-29T21:56:09.052Z,62.90
2018-11-29T21:58:38.092Z,62.90
2018-11-29T22:01:07.314Z,62.90
2018-11-29T22:03:36.414Z,62.70
2018-11-29T22:06:05.493Z,62.80
2018-11-29T22:08:34.587Z,62.70
2018-11-29T22:11:03.593Z,62.70
2018-11-29T22:13:32.895Z,62.90
2018-11-29T22:16:01.965Z,62.80
2018-11-29T22:18:31.186Z,62.50
2018-11-29T22:21:02.524Z,62.50
2018-11-29T22:23:32.999Z,62.30
2018-11-29T22:26:03.527Z,62.40
2018-11-29T22:28:32.726Z,62.20
2018-11-29T22:31:03.466Z,62.00
2018-11-29T22:33:32.585Z,62.20
2018-11-29T22:36:01.582Z,62.30
2018-11-29T22:38:30.628Z,62.10
2018-11-29T22:40:59.721Z,62.10
2018-11-29T22:43:28.788Z,62.10
2018-11-29T22:45:57.831Z,62.40
2018-11-29T22:48:26.984Z,62.40
2018-11-29T22:50:56.079Z,62.40
2018-11-29T22:53:25.478Z,62.30
2018-11-29T22:55:54.488Z,62.40
2018-11-29T22:58:23.838Z,62.30
2018-11-29T23:00:53.438Z,62.60
2018-11-29T23:03:22.768Z,62.50
2018-11-29T23:05:51.813Z,62.50
2018-11-29T23:08:20.920Z,62.40
2018-11-29T23:10:50.008Z,62.20
2018-11-29T23:13:19.176Z,62.30
2018-11-29T23:15:48.266Z,62.00
2018-11-29T23:18:17.396Z,61.90
2018-11-29T23:20:46.438Z,62.00
2018-11-29T23:23:15.512Z,62.00
2018-11-29T23:25:44.616Z,62.00
2018-11-29T23:28:14.286Z,62.00
2018-11-29T23:30:43.340Z,62.00
2018-11-29T23:33:12.670Z,62.00
2018-11-29T23:35:41.739Z,62.00
2018-11-29T23:38:10.756Z,62.10
2018-11-29T23:40:39.965Z,62.10
2018-11-29T23:43:08.961Z,63.00
2018-11-29T23:45:38.275Z,62.10
2018-11-29T23:48:07.342Z,62.10
2018-11-29T23:50:36.383Z,62.10
2018-11-29T23:53:05.644Z,62.10
2018-11-29T23:55:34.761Z,62.10
2018-11-29T23:58:03.794Z,62.00
